Time;durP1;ratioP1;P1;durP2;ratioP2;P2;SDS_P1;SDS_P2;PMS_P1;PMS_P2;Temp;Humidity;BMP_temperature;BMP_pressure;BME280_temperature;BME280_humidity;BME280_pressure;Samples;Min_cycle;Max_cycle;Signal;HPM_P1;HPM_P2
2022/12/02 00:02:25;;;;;;;75.68;35.00;;;;;;;4.08;97.47;102533.38;4973395;28;20026;-82
2022/12/02 00:04:56;;;;;;;76.28;36.80;;;;;;;4.01;97.26;102528.81;4973282;28;20054;-82
2022/12/02 00:07:21;;;;;;;74.32;33.13;;;;;;;4.00;97.19;102525.38;4972981;28;20033;-82
2022/12/02 00:09:47;;;;;;;71.85;33.45;;;;;;;4.00;96.99;102524.50;4973524;28;20031;-82
2022/12/02 00:12:27;;;;;;;72.53;35.30;;;;;;;3.96;96.81;102531.22;4972924;28;20150;-82
2022/12/02 00:15:00;;;;;;;74.32;35.67;;;;;;;3.90;96.76;102514.69;4974592;28;20030;-82
2022/12/02 00:17:25;;;;;;;68.05;33.63;;;;;;;3.95;96.99;102524.31;4992876;28;20032;-82
2022/12/02 00:19:51;;;;;;;69.15;32.85;;;;;;;3.94;96.27;102529.41;4980100;28;20029;-82
2022/12/02 00:22:17;;;;;;;63.33;32.45;;;;;;;3.95;96.46;102519.19;4973206;28;20069;-81
2022/12/02 00:24:42;;;;;;;55.45;28.50;;;;;;;3.98;96.23;102521.00;4973781;28;20026;-82
2022/12/02 00:27:07;;;;;;;60.10;30.63;;;;;;;3.99;95.37;102522.75;4973088;28;20026;-82
2022/12/02 00:29:45;;;;;;;56.92;31.10;;;;;;;3.93;95.16;102512.25;4973177;28;20039;-82
2022/12/02 00:32:10;;;;;;;61.38;32.28;;;;;;;3.92;94.17;102513.06;4975489;28;20407;-81
2022/12/02 00:34:35;;;;;;;71.03;34.65;;;;;;;3.75;93.98;102513.25;4976888;28;20121;-82
2022/12/02 00:37:01;;;;;;;69.05;34.92;;;;;;;3.73;94.18;102506.31;4977459;28;20117;-82
2022/12/02 00:39:26;;;;;;;60.15;30.58;;;;;;;3.73;94.27;102508.88;4976102;28;20093;-82
2022/12/02 00:41:51;;;;;;;65.82;33.42;;;;;;;3.65;94.38;102503.44;4977179;28;20034;-82
2022/12/02 00:47:00;;;;;;;64.80;31.30;;;;;;;3.61;94.93;102499.88;4976340;28;20070;-81
2022/12/02 00:49:26;;;;;;;57.15;31.27;;;;;;;3.63;95.12;102500.81;4976590;28;20027;-82
2022/12/02 00:51:51;;;;;;;57.08;29.45;;;;;;;3.65;94.95;102504.31;4976915;28;20053;-83
2022/12/02 00:54:22;;;;;;;58.30;30.25;;;;;;;3.63;95.13;102500.81;4976479;28;20115;-84
2022/12/02 00:56:47;;;;;;;62.88;32.78;;;;;;;3.54;94.80;102498.75;4976584;28;20037;-82
2022/12/02 00:59:13;;;;;;;67.95;33.45;;;;;;;3.45;95.23;102495.81;4976699;28;20415;-82
2022/12/02 01:01:39;;;;;;;62.70;31.77;;;;;;;3.48;95.11;102492.47;4976360;28;20085;-82
2022/12/02 01:04:05;;;;;;;63.30;31.88;;;;;;;3.44;95.03;102498.28;4976337;28;20027;-82
2022/12/02 01:06:48;;;;;;;66.90;33.50;;;;;;;3.40;95.24;102494.72;4976608;28;20026;-82
2022/12/02 01:09:16;;;;;;;62.60;32.28;;;;;;;3.36;95.37;102491.16;4975916;28;20031;-82
2022/12/02 01:11:41;;;;;;;62.10;30.88;;;;;;;3.37;95.59;102497.19;4976605;28;20148;-82
2022/12/02 01:14:06;;;;;;;59.95;30.20;;;;;;;3.43;95.60;102494.88;4976219;28;20368;-82
2022/12/02 01:16:32;;;;;;;70.03;34.35;;;;;;;3.33;95.63;102487.59;4975753;28;20023;-82
2022/12/02 01:18:57;;;;;;;66.22;32.88;;;;;;;3.34;96.15;102497.06;4975933;28;20027;-82
2022/12/02 01:21:25;;;;;;;64.70;31.63;;;;;;;3.32;95.82;102491.84;4975651;28;20027;-82
2022/12/02 01:23:50;;;;;;;63.10;31.58;;;;;;;3.28;96.06;102490.00;4976382;28;20089;-82
2022/12/02 01:26:30;;;;;;;66.93;32.80;;;;;;;3.24;96.31;102493.22;4975901;28;20463;-82
2022/12/02 01:28:55;;;;;;;67.65;32.38;;;;;;;3.19;95.88;102497.31;4976001;28;20038;-82
2022/12/02 01:31:20;;;;;;;62.88;31.77;;;;;;;3.21;96.19;102487.97;4975630;28;20383;-82
2022/12/02 01:33:46;;;;;;;62.08;30.55;;;;;;;3.21;96.48;102480.25;4975866;28;20125;-82
2022/12/02 01:36:11;;;;;;;59.20;29.42;;;;;;;3.23;96.47;102487.22;4975140;28;20031;-82
2022/12/02 01:38:36;;;;;;;60.47;30.90;;;;;;;3.22;96.05;102485.47;4975880;28;20035;-82
2022/12/02 01:41:02;;;;;;;59.28;29.85;;;;;;;3.23;96.09;102489.78;4976090;28;20022;-82
2022/12/02 01:43:42;;;;;;;61.55;30.70;;;;;;;3.23;95.98;102491.47;4974410;28;20484;-82
2022/12/02 01:46:08;;;;;;;61.20;30.42;;;;;;;3.21;95.70;102490.53;4974964;28;20385;-82
2022/12/02 01:48:35;;;;;;;61.40;31.15;;;;;;;3.20;95.58;102486.22;4976244;28;20041;-82
2022/12/02 01:51:12;;;;;;;55.63;28.88;;;;;;;3.22;95.31;102488.03;4975641;28;20026;-82
2022/12/02 01:53:38;;;;;;;58.67;29.80;;;;;;;3.20;95.32;102484.53;4975856;28;20023;-82
2022/12/02 01:56:03;;;;;;;55.15;27.60;;;;;;;3.26;95.19;102488.19;4975978;28;20019;-82
2022/12/02 01:58:30;;;;;;;49.85;25.45;;;;;;;3.28;95.48;102478.81;4975375;28;20082;-82
2022/12/02 02:00:56;;;;;;;51.92;26.48;;;;;;;3.31;95.02;102485.00;4975744;28;20038;-82
2022/12/02 02:03:31;;;;;;;55.53;29.77;;;;;;;3.27;94.72;102477.06;4975526;28;20047;-82
2022/12/02 02:06:01;;;;;;;62.92;31.63;;;;;;;3.15;94.78;102486.03;4975158;28;20785;-82
2022/12/02 02:08:27;;;;;;;60.13;30.02;;;;;;;3.20;95.38;102488.81;4974840;28;20027;-82
2022/12/02 02:10:52;;;;;;;53.50;27.13;;;;;;;3.22;94.76;102482.00;4974571;28;20030;-82
2022/12/02 02:13:17;;;;;;;55.58;29.50;;;;;;;3.24;94.39;102485.53;4974715;28;20031;-82
2022/12/02 02:15:55;;;;;;;54.38;27.45;;;;;;;3.22;94.60;102475.22;4975270;28;20053;-82
2022/12/02 02:18:20;;;;;;;55.00;27.48;;;;;;;3.22;94.62;102480.34;4974740;28;20392;-82
2022/12/02 02:20:46;;;;;;;58.15;29.80;;;;;;;3.17;94.15;102478.41;4974935;28;20078;-82
2022/12/02 02:23:25;;;;;;;61.92;30.55;;;;;;;3.12;94.19;102483.34;4974855;28;20107;-81
2022/12/02 02:25:54;;;;;;;58.42;29.08;;;;;;;3.10;94.71;102482.41;4974453;28;20102;-82
2022/12/02 02:28:23;;;;;;;63.78;31.75;;;;;;;2.98;94.41;102481.88;4974901;28;20037;-82
2022/12/02 02:30:50;;;;;;;60.63;30.38;;;;;;;2.99;94.83;102476.78;4975356;28;20384;-82
2022/12/02 02:33:15;;;;;;;66.03;31.95;;;;;;;2.81;94.05;102479.47;4974038;28;20037;-82
2022/12/02 02:35:42;;;;;;;58.80;30.77;;;;;;;2.83;94.62;102477.84;4974606;28;20075;-82
2022/12/02 02:38:12;;;;;;;63.75;30.52;;;;;;;2.76;94.02;102478.38;4974770;28;20030;-83
2022/12/02 02:40:38;;;;;;;59.35;29.38;;;;;;;2.74;94.15;102474.88;4974810;28;20361;-82
2022/12/02 02:43:04;;;;;;;59.33;31.02;;;;;;;2.68;93.34;102470.38;4974718;28;20033;-82
2022/12/02 02:45:46;;;;;;;58.15;29.50;;;;;;;2.66;92.78;102466.00;4974628;28;20055;-82
2022/12/02 02:48:13;;;;;;;56.40;28.58;;;;;;;2.61;92.71;102464.09;4971322;28;20046;-82
2022/12/02 02:50:39;;;;;;;;;;;;;;;2.62;92.29;102467.53;4974714;28;20023;-82
2022/12/02 02:53:05;;;;;;;55.65;27.38;;;;;;;2.57;92.47;102457.09;4973734;28;19918;-82
2022/12/02 02:55:31;;;;;;;56.13;29.10;;;;;;;2.56;92.54;102464.69;4974270;28;20538;-81
2022/12/02 02:58:32;;;;;;;53.27;26.17;;;;;;;2.56;92.49;102465.59;4974777;28;20034;-82
2022/12/02 03:01:01;;;;;;;53.92;26.80;;;;;;;2.57;92.23;102459.66;4952327;28;20790;-82
2022/12/02 03:03:30;;;;;;;56.58;27.70;;;;;;;2.53;91.83;102457.75;4971266;23;20043;-82
2022/12/02 03:05:57;;;;;;;57.40;27.88;;;;;;;2.51;90.93;102454.25;4955005;29;20385;-82
2022/12/02 03:08:24;;;;;;;53.38;27.15;;;;;;;2.53;91.40;102446.66;4954432;29;20539;-82
2022/12/02 03:10:53;;;;;;;54.95;26.63;;;;;;;2.50;91.11;102449.06;4954823;29;20023;-82
2022/12/02 03:13:19;;;;;;;55.03;28.23;;;;;;;2.44;91.21;102436.84;4955029;29;20469;-82
2022/12/02 03:15:45;;;;;;;52.83;26.67;;;;;;;2.43;91.55;102441.09;4954617;28;20119;-83
2022/12/02 03:18:11;;;;;;;51.17;25.52;;;;;;;2.46;91.69;102440.38;4954596;29;20110;-83
2022/12/02 03:20:37;;;;;;;52.72;26.60;;;;;;;2.44;91.82;102439.41;4954555;29;20032;-83
2022/12/02 03:23:02;;;;;;;55.95;27.73;;;;;;;2.38;91.85;102436.56;4954628;29;20023;-81
2022/12/02 03:25:28;;;;;;;52.08;27.13;;;;;;;2.36;91.98;102448.47;4954355;29;20122;-82
2022/12/02 03:27:53;;;;;;;53.60;26.17;;;;;;;2.34;92.05;102453.50;4954108;29;20031;-82
2022/12/02 03:30:19;;;;;;;57.08;28.00;;;;;;;2.25;91.76;102446.25;4954394;28;20678;-82
2022/12/02 03:32:44;;;;;;;54.15;26.80;;;;;;;2.28;91.76;102443.84;4954543;29;20078;-81
2022/12/02 03:35:10;;;;;;;54.97;27.73;;;;;;;2.22;91.72;102448.72;4954183;29;20035;-81
2022/12/02 03:37:35;;;;;;;57.33;28.42;;;;;;;2.18;91.64;102444.25;4954724;29;20392;-81
2022/12/02 03:40:01;;;;;;;54.22;26.67;;;;;;;2.20;91.71;102434.94;4955006;29;20468;-82
2022/12/02 03:42:26;;;;;;;51.20;25.45;;;;;;;2.23;92.22;102424.84;4953942;29;20077;-81
2022/12/02 03:44:52;;;;;;;54.65;26.92;;;;;;;2.25;92.05;102420.66;4954475;29;20030;-82
2022/12/02 03:47:17;;;;;;;50.83;25.08;;;;;;;2.26;92.24;102424.97;4954390;29;20551;-82
2022/12/02 03:49:43;;;;;;;54.70;27.58;;;;;;;2.27;92.02;102428.41;4954523;29;20364;-81
2022/12/02 03:52:09;;;;;;;53.97;27.08;;;;;;;2.22;92.28;102427.31;4954361;29;20035;-81
2022/12/02 03:54:35;;;;;;;58.22;27.85;;;;;;;2.19;92.16;102427.22;4954352;29;20031;-82
2022/12/02 03:57:06;;;;;;;53.92;25.63;;;;;;;2.23;92.59;102421.41;4954110;29;20035;-82
2022/12/02 03:59:34;;;;;;;51.10;25.73;;;;;;;2.23;92.56;102412.03;4954353;29;20094;-82
2022/12/02 04:02:25;;;;;;;53.50;25.77;;;;;;;2.23;92.45;102416.28;4954400;28;20054;-81
2022/12/02 04:05:00;;;;;;;56.45;27.05;;;;;;;2.17;92.58;102414.31;4953798;28;20043;-82
2022/12/02 04:07:25;;;;;;;53.40;25.15;;;;;;;2.19;93.02;102411.84;4957694;28;20019;-82
2022/12/02 04:10:00;;;;;;;51.30;25.15;;;;;;;2.21;93.39;102416.22;4959066;28;20106;-82
2022/12/02 04:12:28;;;;;;;47.33;23.25;;;;;;;2.27;93.63;102410.50;4957942;29;20038;-82
2022/12/02 04:15:03;;;;;;;53.40;25.23;;;;;;;2.25;92.49;102412.97;4958025;29;20027;-82
2022/12/02 04:17:41;;;;;;;50.13;24.17;;;;;;;2.26;93.15;102412.16;4957791;29;20035;-82
2022/12/02 04:20:11;;;;;;;48.92;23.33;;;;;;;2.24;92.97;102406.13;4957383;28;20500;-82
2022/12/02 04:22:36;;;;;;;47.00;21.60;;;;;;;2.26;92.88;102404.47;4957265;29;20035;-82
2022/12/02 04:25:03;;;;;;;47.53;22.75;;;;;;;2.30;93.45;102398.69;4957619;29;20035;-82
2022/12/02 04:27:29;;;;;;;49.38;22.83;;;;;;;2.29;93.05;102403.75;4957606;29;20027;-82
2022/12/02 04:29:54;;;;;;;49.58;24.23;;;;;;;2.26;93.12;102407.03;4958181;29;20034;-82
2022/12/02 04:32:20;;;;;;;53.45;25.02;;;;;;;2.25;93.18;102405.28;4956913;29;20028;-82
2022/12/02 04:34:45;;;;;;;54.42;25.70;;;;;;;2.21;93.13;102407.63;4957804;29;20043;-82
2022/12/02 04:37:10;;;;;;;54.38;25.80;;;;;;;2.15;92.79;102419.38;4958023;29;20042;-83
2022/12/02 04:39:36;;;;;;;49.58;22.83;;;;;;;2.22;93.32;102409.41;4957661;29;20023;-82
2022/12/02 04:42:01;;;;;;;53.75;24.50;;;;;;;2.14;92.75;102414.16;4957528;29;20027;-83
2022/12/02 04:44:26;;;;;;;47.53;21.48;;;;;;;2.17;92.70;102406.63;4957675;29;20479;-82
2022/12/02 04:46:51;;;;;;;48.45;22.88;;;;;;;2.15;92.10;102398.00;4957237;29;20035;-82
2022/12/02 04:49:17;;;;;;;49.08;22.58;;;;;;;2.11;92.03;102396.13;4957181;29;20023;-82
2022/12/02 04:51:44;;;;;;;50.00;23.45;;;;;;;2.12;92.12;102395.31;4957925;29;20356;-82
2022/12/02 04:54:10;;;;;;;46.45;22.23;;;;;;;2.07;91.30;102395.13;4957192;29;20034;-82
2022/12/02 04:56:35;;;;;;;44.60;21.25;;;;;;;2.08;90.71;102393.41;4957439;29;20024;-82
2022/12/02 04:59:01;;;;;;;41.83;19.83;;;;;;;2.12;90.99;102390.19;4957508;29;20492;-81
2022/12/02 05:01:26;;;;;;;44.90;20.35;;;;;;;2.10;89.91;102387.53;4956924;29;20102;-82
2022/12/02 05:03:51;;;;;;;42.53;20.33;;;;;;;2.15;91.08;102380.06;4957017;28;20055;-82
2022/12/02 05:06:17;;;;;;;40.30;19.40;;;;;;;2.21;91.42;102380.34;4956643;29;20035;-82
2022/12/02 05:08:42;;;;;;;42.00;19.15;;;;;;;2.23;90.89;102382.97;4957152;29;20023;-82
2022/12/02 05:11:07;;;;;;;37.92;17.45;;;;;;;2.27;91.33;102382.31;4957319;29;20498;-82
2022/12/02 05:13:33;;;;;;;44.95;21.38;;;;;;;2.26;90.53;102373.72;4956971;29;20023;-82
2022/12/02 05:15:58;;;;;;;42.40;19.63;;;;;;;2.29;90.78;102365.31;4956984;29;20038;-82
2022/12/02 05:18:23;;;;;;;42.90;20.88;;;;;;;2.22;89.43;102374.44;4956680;28;20059;-82
2022/12/02 05:20:48;;;;;;;45.40;21.90;;;;;;;2.19;89.94;102373.41;4977945;23;20406;-82
2022/12/02 05:23:14;;;;;;;45.03;21.52;;;;;;;2.11;90.25;102376.50;4995535;28;20561;-82
2022/12/02 05:25:39;;;;;;;46.78;22.52;;;;;;;2.06;90.21;102369.41;4995406;28;20519;-82
2022/12/02 05:28:04;;;;;;;45.17;21.73;;;;;;;2.07;90.58;102369.50;4995251;28;20027;-82
2022/12/02 05:30:30;;;;;;;42.00;19.55;;;;;;;2.13;90.82;102391.94;4995884;28;20030;-82
2022/12/02 05:32:55;;;;;;;46.05;22.17;;;;;;;2.05;90.81;102383.03;4995658;28;20029;-82
2022/12/02 05:35:20;;;;;;;45.90;21.20;;;;;;;2.01;90.74;102379.47;4994646;28;20030;-83
2022/12/02 05:37:46;;;;;;;45.00;21.05;;;;;;;2.04;91.07;102377.03;4995682;28;20109;-82
2022/12/02 05:40:11;;;;;;;43.50;19.30;;;;;;;2.06;91.43;102367.75;4994917;28;20030;-82
2022/12/02 05:42:38;;;;;;;42.83;19.17;;;;;;;2.07;90.89;102373.72;4995207;28;20027;-82
2022/12/02 05:45:20;;;;;;;;;;;;;;;2.09;90.90;102364.44;4985945;23;20047;-82
2022/12/02 05:48:04;;;;;;;41.30;17.13;;;;;;;2.06;90.42;102357.50;4956699;29;19915;-82
2022/12/02 05:50:32;;;;;;;40.35;17.88;;;;;;;2.09;90.98;102367.00;4956450;29;20024;-82
2022/12/02 05:52:58;;;;;;;44.08;20.17;;;;;;;2.00;90.53;102365.78;4956091;29;20488;-82
2022/12/02 05:55:23;;;;;;;39.10;17.70;;;;;;;2.04;90.59;102369.34;4956488;29;20407;-81
2022/12/02 05:57:49;;;;;;;38.22;17.23;;;;;;;2.08;91.28;102370.38;4955837;29;20286;-82
2022/12/02 06:00:17;;;;;;;37.33;17.23;;;;;;;2.08;90.72;102367.81;4956182;29;20034;-82
2022/12/02 06:02:51;;;;;;;37.03;16.67;;;;;;;2.10;90.62;102368.75;4955722;29;20035;-82
2022/12/02 06:05:23;;;;;;;39.55;16.98;;;;;;;2.13;90.97;102379.16;4955911;29;20031;-82
2022/12/02 06:07:55;;;;;;;40.65;18.48;;;;;;;2.09;90.79;102375.53;4956404;29;20031;-82
2022/12/02 06:10:25;;;;;;;43.13;18.48;;;;;;;2.07;90.65;102364.38;4955639;29;20023;-82
2022/12/02 06:12:53;;;;;;;40.08;19.17;;;;;;;2.07;90.90;102363.50;4956232;29;20123;-82
2022/12/02 06:15:18;;;;;;;40.47;17.60;;;;;;;2.04;90.66;102368.47;4955849;29;20027;-82
2022/12/02 06:17:44;;;;;;;42.13;19.50;;;;;;;2.00;90.95;102367.47;4955630;29;20491;-82
2022/12/02 06:20:19;;;;;;;40.05;18.10;;;;;;;2.03;90.70;102371.88;4955594;29;20027;-82
2022/12/02 06:22:44;;;;;;;39.80;18.67;;;;;;;2.02;90.60;102368.41;4955883;29;20034;-82
2022/12/02 06:25:22;;;;;;;41.20;18.55;;;;;;;2.02;91.13;102368.41;4954976;29;20477;-82
2022/12/02 06:27:48;;;;;;;41.78;18.77;;;;;;;2.01;91.01;102369.22;4955866;28;20023;-82
2022/12/02 06:30:14;;;;;;;41.15;18.23;;;;;;;2.00;91.47;102360.66;4955275;29;20030;-82
2022/12/02 06:32:45;;;;;;;40.20;18.33;;;;;;;1.95;91.13;102364.69;4955575;29;20046;-83
2022/12/02 06:35:22;;;;;;;38.67;18.58;;;;;;;1.94;91.70;102362.09;4955538;29;20487;-82
2022/12/02 06:37:49;;;;;;;40.45;17.67;;;;;;;1.96;91.60;102363.03;4955143;29;20031;-82
2022/12/02 06:40:28;;;;;;;40.88;18.75;;;;;;;1.97;92.10;102359.66;4955501;29;20030;-82
2022/12/02 06:42:58;;;;;;;41.05;18.38;;;;;;;1.90;91.19;102358.50;4955842;29;20399;-82
2022/12/02 06:45:26;;;;;;;40.97;18.33;;;;;;;1.91;91.43;102367.06;4954883;29;20050;-82
2022/12/02 06:48:31;;;;;;;39.88;17.75;;;;;;;1.87;91.34;102360.91;4955156;29;20035;-82
2022/12/02 06:51:07;;;;;;;40.83;17.85;;;;;;;1.90;91.30;102355.94;4955836;29;20465;-82
2022/12/02 06:53:36;;;;;;;38.72;17.75;;;;;;;1.88;91.45;102365.25;4955211;29;20027;-82
2022/12/02 06:56:13;;;;;;;39.50;18.00;;;;;;;1.87;91.78;102360.03;4955309;29;20380;-82
2022/12/02 06:58:49;;;;;;;35.92;16.10;;;;;;;1.86;91.56;102359.16;4955533;29;20508;-82
2022/12/02 07:01:31;;;;;;;41.05;17.63;;;;;;;1.89;91.80;102354.19;4955046;29;20035;-82
2022/12/02 07:04:02;;;;;;;34.75;15.90;;;;;;;1.94;92.09;102360.38;4955283;29;20039;-82
2022/12/02 07:06:29;;;;;;;38.70;19.02;;;;;;;1.90;91.90;102360.19;4954695;29;20507;-82
2022/12/02 07:09:01;;;;;;;42.05;18.52;;;;;;;1.89;92.36;102368.66;4955260;29;20050;-82
2022/12/02 07:11:52;;;;;;;39.65;16.85;;;;;;;1.94;92.28;102369.75;4954671;29;20478;-82
2022/12/02 07:14:26;;;;;;;39.25;18.05;;;;;;;1.88;92.71;102372.03;4954390;29;20027;-82
2022/12/02 07:16:53;;;;;;;37.47;17.83;;;;;;;1.90;93.20;102370.41;4955021;29;20035;-82
2022/12/02 07:19:25;;;;;;;39.13;17.55;;;;;;;1.90;93.34;102368.75;4954713;29;20039;-81
2022/12/02 07:21:51;;;;;;;38.45;18.58;;;;;;;1.88;93.54;102380.59;4954767;29;20030;-82
2022/12/02 07:24:19;;;;;;;39.03;17.17;;;;;;;1.90;93.32;102372.97;4954345;29;20020;-82
2022/12/02 07:26:46;;;;;;;34.42;14.98;;;;;;;1.94;93.55;102380.88;4955262;29;20484;-82
2022/12/02 07:29:25;;;;;;;35.53;16.60;;;;;;;1.96;92.19;102374.13;4953909;29;20069;-81
2022/12/02 07:31:50;;;;;;;35.53;16.27;;;;;;;1.94;91.84;102372.31;4954989;29;20499;-82
2022/12/02 07:34:15;;;;;;;34.60;14.60;;;;;;;1.94;91.56;102373.19;4954565;29;20015;-82
2022/12/02 07:36:41;;;;;;;35.00;15.35;;;;;;;1.92;90.88;102363.69;4954982;29;20051;-82
2022/12/02 07:39:06;;;;;;;38.03;16.75;;;;;;;1.92;90.69;102362.00;4954544;29;20392;-82
2022/12/02 07:41:32;;;;;;;34.35;14.82;;;;;;;1.95;90.97;102366.41;4953867;28;20116;-81
2022/12/02 07:43:57;;;;;;;35.33;15.75;;;;;;;1.96;91.25;102363.03;4954699;29;20023;-81
2022/12/02 07:46:22;;;;;;;36.45;16.08;;;;;;;1.94;91.25;102360.38;4954332;29;20512;-82
2022/12/02 07:48:48;;;;;;;33.83;15.35;;;;;;;1.91;91.24;102378.19;4953314;29;20058;-82
2022/12/02 07:51:13;;;;;;;36.55;16.42;;;;;;;1.93;91.81;102368.00;4954129;29;20016;-81
2022/12/02 07:53:38;;;;;;;36.60;15.88;;;;;;;1.93;91.56;102363.75;4953491;29;20130;-82
2022/12/02 07:56:18;;;;;;;34.63;16.17;;;;;;;1.94;92.00;102362.09;4953746;29;20027;-82
2022/12/02 07:58:44;;;;;;;38.03;16.17;;;;;;;1.88;92.27;102362.69;4954424;29;20028;-82
2022/12/02 08:01:09;;;;;;;37.42;16.77;;;;;;;1.87;92.36;102373.72;4953736;29;20110;-82
2022/12/02 08:03:34;;;;;;;38.47;17.27;;;;;;;1.83;92.65;102365.03;4954189;29;20029;-82
2022/12/02 08:06:00;;;;;;;40.17;17.73;;;;;;;1.83;92.68;102371.81;4954452;29;20132;-82
2022/12/02 08:08:27;;;;;;;39.08;17.65;;;;;;;1.84;92.97;102378.69;4954092;29;20055;-82
2022/12/02 08:10:55;;;;;;;38.38;16.85;;;;;;;1.86;93.18;102379.66;4954062;29;20039;-82
2022/12/02 08:13:20;;;;;;;35.13;15.77;;;;;;;1.93;93.04;102376.56;4954086;29;20054;-82
2022/12/02 08:15:51;;;;;;;36.58;15.90;;;;;;;1.97;93.04;102373.31;4954239;29;20032;-82
2022/12/02 08:18:17;;;;;;;36.45;16.70;;;;;;;2.00;93.34;102370.03;4953342;29;20544;-82
2022/12/02 08:20:48;;;;;;;36.70;16.30;;;;;;;1.99;93.44;102364.03;4954540;29;20110;-82
2022/12/02 08:23:25;;;;;;;33.30;14.60;;;;;;;2.05;93.63;102371.13;4953730;29;20465;-82
2022/12/02 08:26:04;;;;;;;;;;;;;;;;;;;;;
2022/12/02 08:28:35;;;;;;;34.80;16.20;;;;;;;2.06;94.08;102366.84;4954281;29;20031;-82
2022/12/02 08:31:01;;;;;;;37.50;17.27;;;;;;;2.03;94.68;102377.00;4953635;29;20028;-81
2022/12/02 08:33:35;;;;;;;38.45;18.83;;;;;;;1.94;94.86;102368.06;4953995;29;20086;-82
2022/12/02 08:36:09;;;;;;;37.63;17.98;;;;;;;1.99;95.17;102360.59;4954320;29;20050;-83
2022/12/02 08:38:35;;;;;;;37.67;17.85;;;;;;;1.95;95.08;102374.94;4953744;29;20106;-82
2022/12/02 08:41:00;;;;;;;39.65;18.23;;;;;;;1.97;95.37;102363.09;4953789;29;20055;-81
2022/12/02 08:43:25;;;;;;;39.92;17.35;;;;;;;1.96;95.48;102361.34;4953550;29;20023;-81
2022/12/02 08:45:51;;;;;;;38.60;18.05;;;;;;;1.99;95.50;102371.72;4953467;29;20118;-81
2022/12/02 08:48:16;;;;;;;38.80;18.00;;;;;;;1.91;95.50;102372.19;4953893;29;20027;-82
2022/12/02 08:51:00;;;;;;;37.38;17.08;;;;;;;1.93;95.54;102371.44;4954022;29;20027;-83
2022/12/02 08:53:25;;;;;;;39.03;17.45;;;;;;;1.93;95.46;102370.56;4955456;29;20023;-90
2022/12/02 08:55:50;;;;;;;37.75;17.30;;;;;;;1.90;96.03;102370.41;4957954;29;20368;-82
2022/12/02 08:58:17;;;;;;;42.20;16.77;;;;;;;1.89;95.93;102364.44;4957229;29;20102;-83
2022/12/02 09:00:42;;;;;;;33.93;16.10;;;;;;;1.98;95.80;102366.50;4956956;29;20027;-82
2022/12/02 09:03:08;;;;;;;34.65;16.40;;;;;;;1.93;96.14;102358.63;4957233;29;20271;-83
2022/12/02 09:05:45;;;;;;;37.93;16.67;;;;;;;1.80;96.35;102359.75;4956851;29;20028;-88
2022/12/02 09:08:29;;;;;;;33.65;15.93;;;;;;;1.87;96.94;102360.03;4956567;29;20051;-82
2022/12/02 09:10:54;;;;;;;34.85;15.70;;;;;;;1.91;97.34;102373.06;4957339;29;20071;-83
2022/12/02 09:13:19;;;;;;;31.83;14.82;;;;;;;1.91;97.71;102370.50;4956187;29;20027;-82
2022/12/02 09:15:45;;;;;;;32.00;14.20;;;;;;;1.89;97.74;102369.56;4957027;29;20111;-83
2022/12/02 09:18:10;;;;;;;30.83;13.85;;;;;;;1.79;98.17;102369.94;4956831;29;20041;-83
2022/12/02 09:20:36;;;;;;;30.92;13.43;;;;;;;1.74;98.75;102369.75;4956253;29;20023;-82
2022/12/02 09:23:01;;;;;;;29.70;13.63;;;;;;;1.67;99.29;102353.22;4957319;29;20477;-83
2022/12/02 09:25:38;;;;;;;29.70;13.40;;;;;;;1.67;99.64;102360.00;4956715;29;20114;-82
2022/12/02 09:28:04;;;;;;;28.17;12.18;;;;;;;1.73;100.00;102356.84;4956036;29;20054;-83
2022/12/02 09:30:29;;;;;;;29.52;13.45;;;;;;;1.75;100.00;102355.25;4956860;29;20050;-83
2022/12/02 09:32:54;;;;;;;32.35;13.50;;;;;;;1.79;100.00;102362.28;4956902;29;20047;-83
2022/12/02 09:35:20;;;;;;;30.42;12.88;;;;;;;1.81;100.00;102370.88;4956221;29;20031;-83
2022/12/02 09:37:48;;;;;;;30.40;13.82;;;;;;;1.82;100.00;102359.81;4956697;29;20102;-82
2022/12/02 09:40:23;;;;;;;31.70;13.45;;;;;;;1.81;100.00;102358.06;4956451;29;20027;-83
2022/12/02 09:42:50;;;;;;;29.17;13.23;;;;;;;1.86;100.00;102346.38;4956190;29;20095;-83
2022/12/02 09:45:15;;;;;;;31.33;13.32;;;;;;;1.80;100.00;102344.41;4956234;29;20114;-83
2022/12/02 09:47:41;;;;;;;32.85;13.50;;;;;;;1.82;100.00;102345.34;4956385;29;20476;-83
2022/12/02 09:50:10;;;;;;;29.75;14.30;;;;;;;1.69;100.00;102346.47;4956211;29;20027;-83
2022/12/02 09:52:35;;;;;;;30.90;13.70;;;;;;;1.74;100.00;102345.81;4939534;29;20023;-83
2022/12/02 09:55:35;;;;;;;30.45;13.40;;;;;;;1.75;100.00;102339.88;4955982;29;20186;-83
2022/12/02 09:58:20;;;;;;;30.35;14.05;;;;;;;1.75;100.00;102350.13;4878375;29;20573;-83
2022/12/02 10:00:46;;;;;;;29.42;13.93;;;;;;;1.75;100.00;102345.88;4899667;29;20039;-84
2022/12/02 10:03:31;;;;;;;31.73;14.45;;;;;;;1.76;100.00;102347.63;4954655;28;20038;-83
2022/12/02 10:06:22;;;;;;;29.77;12.93;;;;;;;1.80;100.00;102343.53;4955396;29;20039;-83
2022/12/02 10:08:48;;;;;;;29.48;13.40;;;;;;;1.82;100.00;102340.25;4956094;29;20035;-84
2022/12/02 10:11:39;;;;;;;32.47;14.75;;;;;;;1.73;100.00;102338.94;4956013;29;20031;-84
2022/12/02 10:14:05;;;;;;;35.78;14.80;;;;;;;1.73;100.00;102344.06;4955232;29;20548;-83
2022/12/02 10:16:39;;;;;;;34.60;15.52;;;;;;;1.72;100.00;102352.53;4955837;29;20102;-83
2022/12/02 10:19:05;;;;;;;40.05;17.17;;;;;;;1.62;100.00;102341.88;4955630;29;20090;-83
2022/12/02 10:21:31;;;;;;;40.00;16.10;;;;;;;1.58;100.00;102339.97;4956214;29;20388;-82
2022/12/02 10:24:11;;;;;;;40.80;17.42;;;;;;;1.64;100.00;102337.72;4955431;29;20623;-81
2022/12/02 10:26:46;;;;;;;42.47;17.33;;;;;;;1.67;100.00;102337.88;4955355;29;20380;-81
2022/12/02 10:29:27;;;;;;;40.22;17.65;;;;;;;1.66;100.00;102340.34;4956053;29;20050;-81
2022/12/02 10:32:01;;;;;;;41.45;17.10;;;;;;;1.73;100.00;102341.50;4954852;29;20484;-80
2022/12/02 10:34:28;;;;;;;45.05;17.20;;;;;;;1.74;100.00;102336.47;4955611;29;20039;-80
2022/12/02 10:36:54;;;;;;;46.00;18.60;;;;;;;1.78;100.00;102338.34;4954873;29;20031;-80
2022/12/02 10:39:20;;;;;;;41.42;17.58;;;;;;;1.78;100.00;102328.09;4955402;29;20026;-80
2022/12/02 10:41:46;;;;;;;40.47;17.98;;;;;;;1.83;100.00;102321.50;4955993;29;20098;-80
2022/12/02 10:44:20;;;;;;;48.15;18.85;;;;;;;1.80;100.00;102316.25;4954421;29;20089;-81
2022/12/02 10:46:46;;;;;;;49.47;19.92;;;;;;;1.81;100.00;102314.56;4955527;29;20045;-80
2022/12/02 10:49:35;;;;;;;43.97;18.67;;;;;;;1.87;100.00;102319.97;4955563;29;20035;-80
2022/12/02 10:52:11;;;;;;;43.72;18.02;;;;;;;1.86;100.00;102328.44;4955012;29;20461;-81
2022/12/02 10:54:39;;;;;;;46.30;21.02;;;;;;;1.87;100.00;102319.97;4955505;29;20117;-81
2022/12/02 10:57:05;;;;;;;46.63;19.35;;;;;;;1.90;100.00;102320.09;4955300;29;20031;-81
2022/12/02 10:59:42;;;;;;;44.50;18.98;;;;;;;1.95;100.00;102322.88;4954345;29;20019;-80
2022/12/02 11:02:25;;;;;;;;;;;;;;;2.04;100.00;102307.00;4955567;29;20035;-79
2022/12/02 11:04:52;;;;;;;41.70;17.67;;;;;;;2.05;99.65;102307.09;4955256;29;19922;-82
2022/12/02 11:07:24;;;;;;;46.22;19.42;;;;;;;2.07;99.69;102314.81;4974326;23;20046;-82
2022/12/02 11:09:53;;;;;;;45.15;18.75;;;;;;;2.08;99.16;102311.47;4994068;28;20050;-81
2022/12/02 11:12:34;;;;;;;48.97;19.58;;;;;;;2.09;98.74;102313.22;4993186;28;20463;-80
2022/12/02 11:15:03;;;;;;;45.38;18.55;;;;;;;2.09;98.74;102308.09;4993687;28;20076;-81
2022/12/02 11:17:50;;;;;;;44.72;19.13;;;;;;;2.10;98.58;102308.16;4993834;28;20026;-81
2022/12/02 11:20:29;;;;;;;47.47;20.70;;;;;;;2.04;98.29;102313.03;4986602;28;20033;-81
2022/12/02 11:22:57;;;;;;;45.38;18.55;;;;;;;2.05;98.31;102304.53;4974104;28;20031;-80
2022/12/02 11:25:41;;;;;;;46.35;19.58;;;;;;;2.08;98.58;102303.78;4985244;28;20045;-79
2022/12/02 11:28:28;;;;;;;49.00;20.35;;;;;;;2.10;98.17;102307.28;4992834;28;20026;-80
2022/12/02 11:31:12;;;;;;;48.92;20.50;;;;;;;2.09;97.86;102306.41;4974336;28;20438;-81
2022/12/02 11:33:47;;;;;;;45.47;18.58;;;;;;;2.06;97.05;102307.94;4973717;28;20034;-82